sensor_id;sensor_type;location;lat;lon;timestamp;temperature;humidity
41324;DHT22;27073;51.128;4.220;2023-05-10T00:01:24;13.70;99.90
41324;DHT22;27073;51.128;4.220;2023-05-10T00:03:50;13.60;99.90
41324;DHT22;27073;51.128;4.220;2023-05-10T00:06:16;13.60;99.90
41324;DHT22;27073;51.128;4.220;2023-05-10T00:08:42;13.60;99.90
41324;DHT22;27073;51.128;4.220;2023-05-10T00:11:08;13.60;99.90
41324;DHT22;27073;51.128;4.220;2023-05-10T00:13:33;13.60;99.90
41324;DHT22;27073;51.128;4.220;2023-05-10T00:15:59;13.70;99.90
41324;DHT22;27073;51.128;4.220;2023-05-10T00:18:25;13.70;99.90
41324;DHT22;27073;51.128;4.220;2023-05-10T00:20:51;13.60;99.90
41324;DHT22;27073;51.128;4.220;2023-05-10T00:23:16;13.50;99.90
41324;DHT22;27073;51.128;4.220;2023-05-10T00:25:42;13.50;99.90
41324;DHT22;27073;51.128;4.220;2023-05-10T00:28:08;13.50;99.90
41324;DHT22;27073;51.128;4.220;2023-05-10T00:30:34;13.40;99.90
41324;DHT22;27073;51.128;4.220;2023-05-10T00:33:01;13.50;99.90
41324;DHT22;27073;51.128;4.220;2023-05-10T00:35:26;13.50;99.90
41324;DHT22;27073;51.128;4.220;2023-05-10T00:37:52;13.50;99.90
41324;DHT22;27073;51.128;4.220;2023-05-10T00:40:19;13.60;99.90
41324;DHT22;27073;51.128;4.220;2023-05-10T00:42:50;13.40;99.90
41324;DHT22;27073;51.128;4.220;2023-05-10T00:45:16;13.50;99.90
41324;DHT22;27073;51.128;4.220;2023-05-10T00:47:41;13.40;99.90
41324;DHT22;27073;51.128;4.220;2023-05-10T00:50:08;13.50;99.90
41324;DHT22;27073;51.128;4.220;2023-05-10T00:52:34;13.50;99.90
41324;DHT22;27073;51.128;4.220;2023-05-10T00:55:00;13.60;99.90
41324;DHT22;27073;51.128;4.220;2023-05-10T00:57:26;13.70;99.90
41324;DHT22;27073;51.128;4.220;2023-05-10T00:59:53;13.70;99.90
41324;DHT22;27073;51.128;4.220;2023-05-10T01:02:19;13.60;99.90
41324;DHT22;27073;51.128;4.220;2023-05-10T01:04:44;13.60;99.90
41324;DHT22;27073;51.128;4.220;2023-05-10T01:07:10;13.50;99.90
41324;DHT22;27073;51.128;4.220;2023-05-10T01:09:36;13.40;99.90
41324;DHT22;27073;51.128;4.220;2023-05-10T01:12:02;13.50;99.90
41324;DHT22;27073;51.128;4.220;2023-05-10T01:14:29;13.40;99.90
41324;DHT22;27073;51.128;4.220;2023-05-10T01:16:55;13.40;99.90
41324;DHT22;27073;51.128;4.220;2023-05-10T01:19:29;13.40;99.90
41324;DHT22;27073;51.128;4.220;2023-05-10T01:38:17;13.50;99.90
41324;DHT22;27073;51.128;4.220;2023-05-10T01:43:25;13.30;99.90
41324;DHT22;27073;51.128;4.220;2023-05-10T01:46:05;13.40;99.90
41324;DHT22;27073;51.128;4.220;2023-05-10T01:48:47;13.30;99.90
41324;DHT22;27073;51.128;4.220;2023-05-10T01:51:21;13.30;99.90
41324;DHT22;27073;51.128;4.220;2023-05-10T01:53:49;13.20;99.90
41324;DHT22;27073;51.128;4.220;2023-05-10T01:56:19;13.30;99.90
41324;DHT22;27073;51.128;4.220;2023-05-10T01:58:48;13.20;99.90
41324;DHT22;27073;51.128;4.220;2023-05-10T02:01:15;13.30;99.90
41324;DHT22;27073;51.128;4.220;2023-05-10T02:03:43;13.30;99.90
41324;DHT22;27073;51.128;4.220;2023-05-10T02:06:10;13.40;99.90
41324;DHT22;27073;51.128;4.220;2023-05-10T02:08:39;13.30;99.90
41324;DHT22;27073;51.128;4.220;2023-05-10T02:11:05;13.20;99.90
41324;DHT22;27073;51.128;4.220;2023-05-10T02:13:34;13.20;99.90
41324;DHT22;27073;51.128;4.220;2023-05-10T02:16:01;13.40;99.90
41324;DHT22;27073;51.128;4.220;2023-05-10T02:18:29;13.30;99.90
41324;DHT22;27073;51.128;4.220;2023-05-10T02:20:56;13.30;99.90
41324;DHT22;27073;51.128;4.220;2023-05-10T02:23:23;13.30;99.90
41324;DHT22;27073;51.128;4.220;2023-05-10T02:25:51;13.20;99.90
41324;DHT22;27073;51.128;4.220;2023-05-10T02:28:21;13.20;99.90
41324;DHT22;27073;51.128;4.220;2023-05-10T02:30:48;13.10;99.90
41324;DHT22;27073;51.128;4.220;2023-05-10T02:33:14;13.10;99.90
41324;DHT22;27073;51.128;4.220;2023-05-10T02:35:41;13.10;99.90
41324;DHT22;27073;51.128;4.220;2023-05-10T02:38:09;13.00;99.90
41324;DHT22;27073;51.128;4.220;2023-05-10T02:40:36;13.10;99.90
41324;DHT22;27073;51.128;4.220;2023-05-10T02:43:04;13.00;99.90
41324;DHT22;27073;51.128;4.220;2023-05-10T02:45:32;13.00;99.90
41324;DHT22;27073;51.128;4.220;2023-05-10T02:48:02;13.10;99.90
41324;DHT22;27073;51.128;4.220;2023-05-10T02:50:30;13.10;99.90
41324;DHT22;27073;51.128;4.220;2023-05-10T02:53:01;13.10;99.90
41324;DHT22;27073;51.128;4.220;2023-05-10T02:55:36;13.20;99.90
41324;DHT22;27073;51.128;4.220;2023-05-10T02:58:03;13.30;99.90
41324;DHT22;27073;51.128;4.220;2023-05-10T03:00:29;13.30;99.90
41324;DHT22;27073;51.128;4.220;2023-05-10T03:02:55;13.20;99.90
41324;DHT22;27073;51.128;4.220;2023-05-10T03:05:21;13.10;99.90
41324;DHT22;27073;51.128;4.220;2023-05-10T03:07:47;13.00;99.90
41324;DHT22;27073;51.128;4.220;2023-05-10T03:10:13;13.00;99.90
41324;DHT22;27073;51.128;4.220;2023-05-10T03:18:15;13.10;99.90
41324;DHT22;27073;51.128;4.220;2023-05-10T03:20:57;13.10;99.90
41324;DHT22;27073;51.128;4.220;2023-05-10T03:25:58;13.10;99.90
41324;DHT22;27073;51.128;4.220;2023-05-10T03:28:25;13.20;99.90
41324;DHT22;27073;51.128;4.220;2023-05-10T03:30:53;13.30;99.90
41324;DHT22;27073;51.128;4.220;2023-05-10T03:33:20;13.20;99.90
41324;DHT22;27073;51.128;4.220;2023-05-10T03:35:46;13.30;99.90
41324;DHT22;27073;51.128;4.220;2023-05-10T03:38:13;13.20;99.90
41324;DHT22;27073;51.128;4.220;2023-05-10T03:40:39;13.20;99.90
41324;DHT22;27073;51.128;4.220;2023-05-10T03:43:06;13.30;99.90
41324;DHT22;27073;51.128;4.220;2023-05-10T03:45:32;13.30;99.90
41324;DHT22;27073;51.128;4.220;2023-05-10T03:47:58;13.30;99.90
41324;DHT22;27073;51.128;4.220;2023-05-10T03:50:24;13.10;99.90
41324;DHT22;27073;51.128;4.220;2023-05-10T03:52:50;13.10;99.90
41324;DHT22;27073;51.128;4.220;2023-05-10T03:55:16;13.30;99.90
41324;DHT22;27073;51.128;4.220;2023-05-10T03:57:42;13.30;99.90
41324;DHT22;27073;51.128;4.220;2023-05-10T04:00:08;13.40;99.90
41324;DHT22;27073;51.128;4.220;2023-05-10T04:02:40;13.40;99.90
41324;DHT22;27073;51.128;4.220;2023-05-10T04:05:09;13.40;99.90
41324;DHT22;27073;51.128;4.220;2023-05-10T04:07:35;13.40;99.90
41324;DHT22;27073;51.128;4.220;2023-05-10T04:10:02;13.50;99.90
41324;DHT22;27073;51.128;4.220;2023-05-10T04:12:27;13.40;99.90
41324;DHT22;27073;51.128;4.220;2023-05-10T04:14:53;13.30;99.90
41324;DHT22;27073;51.128;4.220;2023-05-10T04:17:19;13.20;99.90
41324;DHT22;27073;51.128;4.220;2023-05-10T04:19:44;13.40;99.90
41324;DHT22;27073;51.128;4.220;2023-05-10T04:22:10;13.40;99.90
41324;DHT22;27073;51.128;4.220;2023-05-10T04:24:36;13.30;99.90
41324;DHT22;27073;51.128;4.220;2023-05-10T04:27:01;13.40;99.90
41324;DHT22;27073;51.128;4.220;2023-05-10T04:29:27;13.30;99.90
41324;DHT22;27073;51.128;4.220;2023-05-10T04:31:53;13.20;99.90
41324;DHT22;27073;51.128;4.220;2023-05-10T04:34:20;13.30;99.90
41324;DHT22;27073;51.128;4.220;2023-05-10T04:36:46;13.30;99.90
41324;DHT22;27073;51.128;4.220;2023-05-10T04:39:12;13.20;99.90
41324;DHT22;27073;51.128;4.220;2023-05-10T04:41:39;13.20;99.90
41324;DHT22;27073;51.128;4.220;2023-05-10T04:44:05;13.20;99.90
41324;DHT22;27073;51.128;4.220;2023-05-10T04:46:30;13.20;99.90
41324;DHT22;27073;51.128;4.220;2023-05-10T04:48:56;13.20;99.90
41324;DHT22;27073;51.128;4.220;2023-05-10T04:51:22;13.20;99.90
41324;DHT22;27073;51.128;4.220;2023-05-10T04:53:47;13.30;99.90
41324;DHT22;27073;51.128;4.220;2023-05-10T04:56:13;13.30;99.90
41324;DHT22;27073;51.128;4.220;2023-05-10T04:58:39;13.30;99.90
41324;DHT22;27073;51.128;4.220;2023-05-10T05:01:08;13.40;99.90
41324;DHT22;27073;51.128;4.220;2023-05-10T05:03:34;13.50;99.90
41324;DHT22;27073;51.128;4.220;2023-05-10T05:06:00;13.60;99.90
41324;DHT22;27073;51.128;4.220;2023-05-10T05:08:26;13.50;99.90
41324;DHT22;27073;51.128;4.220;2023-05-10T05:10:52;13.50;99.90
41324;DHT22;27073;51.128;4.220;2023-05-10T05:13:18;13.40;99.90
41324;DHT22;27073;51.128;4.220;2023-05-10T05:15:44;13.30;99.90
41324;DHT22;27073;51.128;4.220;2023-05-10T05:18:10;13.40;99.90
41324;DHT22;27073;51.128;4.220;2023-05-10T05:20:35;13.30;99.90
41324;DHT22;27073;51.128;4.220;2023-05-10T05:23:01;13.40;99.90
41324;DHT22;27073;51.128;4.220;2023-05-10T05:25:27;13.30;99.90
41324;DHT22;27073;51.128;4.220;2023-05-10T05:27:53;13.40;99.90
41324;DHT22;27073;51.128;4.220;2023-05-10T05:30:18;13.40;99.90
41324;DHT22;27073;51.128;4.220;2023-05-10T05:32:44;13.40;99.90
41324;DHT22;27073;51.128;4.220;2023-05-10T05:35:10;13.40;99.90
41324;DHT22;27073;51.128;4.220;2023-05-10T05:37:36;13.30;99.90
41324;DHT22;27073;51.128;4.220;2023-05-10T05:40:03;13.30;99.90
41324;DHT22;27073;51.128;4.220;2023-05-10T05:42:29;13.30;99.90
41324;DHT22;27073;51.128;4.220;2023-05-10T05:44:56;13.30;99.90
41324;DHT22;27073;51.128;4.220;2023-05-10T05:47:21;13.30;99.90
41324;DHT22;27073;51.128;4.220;2023-05-10T05:49:47;13.30;99.90
41324;DHT22;27073;51.128;4.220;2023-05-10T05:52:13;13.40;99.90
41324;DHT22;27073;51.128;4.220;2023-05-10T05:54:38;13.40;99.90
41324;DHT22;27073;51.128;4.220;2023-05-10T05:57:04;13.40;99.90
41324;DHT22;27073;51.128;4.220;2023-05-10T05:59:30;13.40;99.90
41324;DHT22;27073;51.128;4.220;2023-05-10T06:01:56;13.50;99.90
41324;DHT22;27073;51.128;4.220;2023-05-10T06:04:21;13.50;99.90
41324;DHT22;27073;51.128;4.220;2023-05-10T06:06:47;13.40;99.90
41324;DHT22;27073;51.128;4.220;2023-05-10T06:09:13;13.40;99.90
41324;DHT22;27073;51.128;4.220;2023-05-10T06:11:38;13.50;99.90
41324;DHT22;27073;51.128;4.220;2023-05-10T06:14:05;13.50;99.90
41324;DHT22;27073;51.128;4.220;2023-05-10T06:16:32;13.50;99.90
41324;DHT22;27073;51.128;4.220;2023-05-10T06:18:58;13.50;99.90
41324;DHT22;27073;51.128;4.220;2023-05-10T06:21:24;13.70;99.90
41324;DHT22;27073;51.128;4.220;2023-05-10T06:23:49;13.70;99.90
41324;DHT22;27073;51.128;4.220;2023-05-10T06:26:15;13.50;99.90
41324;DHT22;27073;51.128;4.220;2023-05-10T06:28:41;13.60;99.90
41324;DHT22;27073;51.128;4.220;2023-05-10T06:31:07;13.70;99.90
41324;DHT22;27073;51.128;4.220;2023-05-10T06:33:33;13.60;99.90
41324;DHT22;27073;51.128;4.220;2023-05-10T06:35:59;13.60;99.90
41324;DHT22;27073;51.128;4.220;2023-05-10T06:38:25;13.60;99.90
41324;DHT22;27073;51.128;4.220;2023-05-10T06:40:51;13.60;99.90
41324;DHT22;27073;51.128;4.220;2023-05-10T06:43:17;13.60;99.90
41324;DHT22;27073;51.128;4.220;2023-05-10T06:45:43;13.90;99.90
41324;DHT22;27073;51.128;4.220;2023-05-10T06:48:08;14.00;99.90
41324;DHT22;27073;51.128;4.220;2023-05-10T06:50:34;13.90;99.90
41324;DHT22;27073;51.128;4.220;2023-05-10T06:53:00;13.90;99.90
41324;DHT22;27073;51.128;4.220;2023-05-10T06:55:27;13.80;99.90
41324;DHT22;27073;51.128;4.220;2023-05-10T06:57:53;13.90;99.90
41324;DHT22;27073;51.128;4.220;2023-05-10T07:00:19;14.10;99.90
41324;DHT22;27073;51.128;4.220;2023-05-10T07:02:45;14.30;99.90
41324;DHT22;27073;51.128;4.220;2023-05-10T07:05:11;14.30;99.90
41324;DHT22;27073;51.128;4.220;2023-05-10T07:07:37;14.20;99.90
41324;DHT22;27073;51.128;4.220;2023-05-10T07:10:03;14.30;99.90
41324;DHT22;27073;51.128;4.220;2023-05-10T07:12:29;14.40;99.90
41324;DHT22;27073;51.128;4.220;2023-05-10T07:14:55;14.60;99.90
41324;DHT22;27073;51.128;4.220;2023-05-10T07:17:21;14.40;99.90
41324;DHT22;27073;51.128;4.220;2023-05-10T07:19:46;14.50;99.90
41324;DHT22;27073;51.128;4.220;2023-05-10T07:22:12;14.40;99.90
41324;DHT22;27073;51.128;4.220;2023-05-10T07:24:38;14.30;99.90
41324;DHT22;27073;51.128;4.220;2023-05-10T07:27:04;14.30;99.90
41324;DHT22;27073;51.128;4.220;2023-05-10T07:29:29;14.30;99.90
41324;DHT22;27073;51.128;4.220;2023-05-10T07:31:55;14.30;99.90
41324;DHT22;27073;51.128;4.220;2023-05-10T07:34:21;14.50;99.90
41324;DHT22;27073;51.128;4.220;2023-05-10T07:36:47;14.60;99.90
41324;DHT22;27073;51.128;4.220;2023-05-10T07:39:13;14.50;99.90
41324;DHT22;27073;51.128;4.220;2023-05-10T07:41:38;14.40;99.90
41324;DHT22;27073;51.128;4.220;2023-05-10T07:44:05;14.70;99.90
41324;DHT22;27073;51.128;4.220;2023-05-10T07:46:31;14.70;99.90
41324;DHT22;27073;51.128;4.220;2023-05-10T07:48:57;14.70;99.90
41324;DHT22;27073;51.128;4.220;2023-05-10T07:51:22;14.70;99.90
41324;DHT22;27073;51.128;4.220;2023-05-10T07:53:49;14.80;99.90
41324;DHT22;27073;51.128;4.220;2023-05-10T07:58:47;14.80;99.90
41324;DHT22;27073;51.128;4.220;2023-05-10T08:01:12;14.80;99.90
41324;DHT22;27073;51.128;4.220;2023-05-10T08:03:38;14.90;99.90
41324;DHT22;27073;51.128;4.220;2023-05-10T08:06:04;14.80;99.90
41324;DHT22;27073;51.128;4.220;2023-05-10T08:08:30;14.80;99.90
41324;DHT22;27073;51.128;4.220;2023-05-10T08:10:55;15.00;99.90
41324;DHT22;27073;51.128;4.220;2023-05-10T08:13:21;14.90;99.90
41324;DHT22;27073;51.128;4.220;2023-05-10T08:15:47;14.90;99.90
41324;DHT22;27073;51.128;4.220;2023-05-10T08:18:13;15.10;99.90
41324;DHT22;27073;51.128;4.220;2023-05-10T08:20:39;15.20;99.90
41324;DHT22;27073;51.128;4.220;2023-05-10T08:23:04;15.40;99.90
41324;DHT22;27073;51.128;4.220;2023-05-10T08:25:31;15.60;99.90
41324;DHT22;27073;51.128;4.220;2023-05-10T08:27:57;15.50;99.90
41324;DHT22;27073;51.128;4.220;2023-05-10T08:30:23;15.60;99.90
41324;DHT22;27073;51.128;4.220;2023-05-10T08:32:48;15.70;99.90
41324;DHT22;27073;51.128;4.220;2023-05-10T08:35:15;15.80;99.90
41324;DHT22;27073;51.128;4.220;2023-05-10T08:37:41;15.80;99.90
41324;DHT22;27073;51.128;4.220;2023-05-10T08:40:08;15.60;99.90
41324;DHT22;27073;51.128;4.220;2023-05-10T08:42:40;15.70;99.90
41324;DHT22;27073;51.128;4.220;2023-05-10T08:45:10;15.80;99.90
41324;DHT22;27073;51.128;4.220;2023-05-10T08:47:36;15.60;99.90
41324;DHT22;27073;51.128;4.220;2023-05-10T08:50:04;15.40;99.90
41324;DHT22;27073;51.128;4.220;2023-05-10T08:52:34;15.30;99.90
41324;DHT22;27073;51.128;4.220;2023-05-10T08:55:04;15.20;99.90
41324;DHT22;27073;51.128;4.220;2023-05-10T08:57:30;15.10;99.90
41324;DHT22;27073;51.128;4.220;2023-05-10T08:59:55;15.10;99.90
41324;DHT22;27073;51.128;4.220;2023-05-10T09:02:22;15.00;99.90
41324;DHT22;27073;51.128;4.220;2023-05-10T09:04:48;14.90;99.90
41324;DHT22;27073;51.128;4.220;2023-05-10T09:07:14;14.90;99.90
41324;DHT22;27073;51.128;4.220;2023-05-10T09:09:40;14.50;99.90
41324;DHT22;27073;51.128;4.220;2023-05-10T09:12:06;14.40;99.90
41324;DHT22;27073;51.128;4.220;2023-05-10T09:14:34;14.50;99.90
41324;DHT22;27073;51.128;4.220;2023-05-10T09:17:00;14.70;99.90
41324;DHT22;27073;51.128;4.220;2023-05-10T09:19:27;14.70;99.90
41324;DHT22;27073;51.128;4.220;2023-05-10T09:21:53;14.70;99.90
41324;DHT22;27073;51.128;4.220;2023-05-10T09:24:19;14.60;99.90
41324;DHT22;27073;51.128;4.220;2023-05-10T09:26:48;14.50;99.90
41324;DHT22;27073;51.128;4.220;2023-05-10T09:29:14;14.50;99.90
41324;DHT22;27073;51.128;4.220;2023-05-10T09:31:48;14.50;99.90
41324;DHT22;27073;51.128;4.220;2023-05-10T09:34:28;14.40;99.90
41324;DHT22;27073;51.128;4.220;2023-05-10T09:36:56;14.60;99.90
41324;DHT22;27073;51.128;4.220;2023-05-10T09:39:38;14.70;99.90
41324;DHT22;27073;51.128;4.220;2023-05-10T09:42:06;14.90;99.90
41324;DHT22;27073;51.128;4.220;2023-05-10T09:44:33;15.00;99.90
41324;DHT22;27073;51.128;4.220;2023-05-10T09:47:00;15.00;99.90
41324;DHT22;27073;51.128;4.220;2023-05-10T09:49:26;15.00;99.90
41324;DHT22;27073;51.128;4.220;2023-05-10T09:52:06;15.00;99.90
41324;DHT22;27073;51.128;4.220;2023-05-10T09:54:33;15.10;99.90
41324;DHT22;27073;51.128;4.220;2023-05-10T09:56:59;15.20;99.90
41324;DHT22;27073;51.128;4.220;2023-05-10T09:59:27;15.20;99.90
41324;DHT22;27073;51.128;4.220;2023-05-10T10:01:56;15.20;99.90
41324;DHT22;27073;51.128;4.220;2023-05-10T10:04:22;15.20;99.90
41324;DHT22;27073;51.128;4.220;2023-05-10T10:06:59;15.20;99.90
41324;DHT22;27073;51.128;4.220;2023-05-10T10:09:26;15.20;99.90
41324;DHT22;27073;51.128;4.220;2023-05-10T10:11:52;15.40;99.90
41324;DHT22;27073;51.128;4.220;2023-05-10T10:14:19;15.60;99.90
41324;DHT22;27073;51.128;4.220;2023-05-10T10:16:46;15.50;99.90
41324;DHT22;27073;51.128;4.220;2023-05-10T10:19:12;15.60;99.90
41324;DHT22;27073;51.128;4.220;2023-05-10T10:21:38;15.40;99.90
41324;DHT22;27073;51.128;4.220;2023-05-10T10:24:03;15.40;99.90
41324;DHT22;27073;51.128;4.220;2023-05-10T10:26:33;15.40;99.90
41324;DHT22;27073;51.128;4.220;2023-05-10T10:29:17;15.70;99.90
41324;DHT22;27073;51.128;4.220;2023-05-10T10:34:28;16.00;99.90
41324;DHT22;27073;51.128;4.220;2023-05-10T10:36:56;16.00;99.90
41324;DHT22;27073;51.128;4.220;2023-05-10T10:39:23;15.60;99.90
41324;DHT22;27073;51.128;4.220;2023-05-10T10:41:52;15.40;99.90
41324;DHT22;27073;51.128;4.220;2023-05-10T10:49:49;15.70;99.90
41324;DHT22;27073;51.128;4.220;2023-05-10T10:52:38;15.60;99.90
41324;DHT22;27073;51.128;4.220;2023-05-10T10:55:11;15.70;99.90
41324;DHT22;27073;51.128;4.220;2023-05-10T11:07:59;15.80;99.90
41324;DHT22;27073;51.128;4.220;2023-05-10T11:10:26;15.90;99.90
41324;DHT22;27073;51.128;4.220;2023-05-10T11:13:02;15.60;99.90
41324;DHT22;27073;51.128;4.220;2023-05-10T11:15:36;15.90;99.90
41324;DHT22;27073;51.128;4.220;2023-05-10T11:18:28;15.90;99.90
41324;DHT22;27073;51.128;4.220;2023-05-10T11:21:01;15.90;99.90
41324;DHT22;27073;51.128;4.220;2023-05-10T11:26:12;16.00;99.90
41324;DHT22;27073;51.128;4.220;2023-05-10T11:28:45;16.10;99.90
41324;DHT22;27073;51.128;4.220;2023-05-10T11:31:14;16.10;99.90
41324;DHT22;27073;51.128;4.220;2023-05-10T11:33:52;16.10;99.90
41324;DHT22;27073;51.128;4.220;2023-05-10T11:36:29;16.10;99.90
41324;DHT22;27073;51.128;4.220;2023-05-10T11:38:56;16.10;99.90
41324;DHT22;27073;51.128;4.220;2023-05-10T11:41:23;16.10;99.90
41324;DHT22;27073;51.128;4.220;2023-05-10T11:43:51;16.30;99.90
41324;DHT22;27073;51.128;4.220;2023-05-10T11:46:22;16.10;99.90
41324;DHT22;27073;51.128;4.220;2023-05-10T11:48:50;16.10;99.90
41324;DHT22;27073;51.128;4.220;2023-05-10T11:51:23;16.30;99.90
41324;DHT22;27073;51.128;4.220;2023-05-10T11:53:50;16.40;99.90
41324;DHT22;27073;51.128;4.220;2023-05-10T11:56:17;16.50;99.90
41324;DHT22;27073;51.128;4.220;2023-05-10T11:58:43;16.40;99.90
41324;DHT22;27073;51.128;4.220;2023-05-10T12:01:09;16.60;99.90
41324;DHT22;27073;51.128;4.220;2023-05-10T12:03:36;16.40;99.90
41324;DHT22;27073;51.128;4.220;2023-05-10T12:06:03;16.20;99.90
41324;DHT22;27073;51.128;4.220;2023-05-10T12:08:30;16.30;99.90
41324;DHT22;27073;51.128;4.220;2023-05-10T12:11:07;16.50;99.90
41324;DHT22;27073;51.128;4.220;2023-05-10T12:13:38;16.50;99.90
41324;DHT22;27073;51.128;4.220;2023-05-10T12:16:25;16.50;99.90
41324;DHT22;27073;51.128;4.220;2023-05-10T12:18:53;16.60;99.90
41324;DHT22;27073;51.128;4.220;2023-05-10T12:21:20;16.50;99.90
41324;DHT22;27073;51.128;4.220;2023-05-10T12:23:59;16.40;99.90
41324;DHT22;27073;51.128;4.220;2023-05-10T12:26:26;16.20;99.90
41324;DHT22;27073;51.128;4.220;2023-05-10T12:28:54;16.10;99.90
41324;DHT22;27073;51.128;4.220;2023-05-10T12:31:20;16.10;99.90
41324;DHT22;27073;51.128;4.220;2023-05-10T12:33:46;15.90;99.90
41324;DHT22;27073;51.128;4.220;2023-05-10T12:36:14;16.10;99.90
41324;DHT22;27073;51.128;4.220;2023-05-10T12:38:43;16.10;99.90
41324;DHT22;27073;51.128;4.220;2023-05-10T12:41:14;16.00;99.90
41324;DHT22;27073;51.128;4.220;2023-05-10T12:43:40;16.10;99.90
41324;DHT22;27073;51.128;4.220;2023-05-10T12:46:07;16.10;99.90
41324;DHT22;27073;51.128;4.220;2023-05-10T12:48:34;16.30;99.90
41324;DHT22;27073;51.128;4.220;2023-05-10T12:51:01;16.30;99.90
41324;DHT22;27073;51.128;4.220;2023-05-10T12:53:26;16.20;99.90
41324;DHT22;27073;51.128;4.220;2023-05-10T12:55:52;16.20;99.90
41324;DHT22;27073;51.128;4.220;2023-05-10T12:58:18;16.20;99.90
41324;DHT22;27073;51.128;4.220;2023-05-10T13:00:44;16.10;99.90
41324;DHT22;27073;51.128;4.220;2023-05-10T13:03:10;16.20;99.90
41324;DHT22;27073;51.128;4.220;2023-05-10T13:05:36;16.00;99.90
41324;DHT22;27073;51.128;4.220;2023-05-10T13:08:02;16.00;99.90
41324;DHT22;27073;51.128;4.220;2023-05-10T13:10:29;16.00;99.90
41324;DHT22;27073;51.128;4.220;2023-05-10T13:12:56;15.90;99.90
41324;DHT22;27073;51.128;4.220;2023-05-10T13:15:22;15.70;99.90
41324;DHT22;27073;51.128;4.220;2023-05-10T13:17:48;15.70;99.90
41324;DHT22;27073;51.128;4.220;2023-05-10T13:20:14;15.50;99.90
41324;DHT22;27073;51.128;4.220;2023-05-10T13:22:41;15.60;99.90
41324;DHT22;27073;51.128;4.220;2023-05-10T13:25:07;15.70;99.90
41324;DHT22;27073;51.128;4.220;2023-05-10T13:27:33;15.70;99.90
41324;DHT22;27073;51.128;4.220;2023-05-10T13:29:58;15.80;99.90
41324;DHT22;27073;51.128;4.220;2023-05-10T13:32:25;16.00;99.90
41324;DHT22;27073;51.128;4.220;2023-05-10T13:34:51;15.90;99.90
41324;DHT22;27073;51.128;4.220;2023-05-10T13:37:18;15.90;99.90
41324;DHT22;27073;51.128;4.220;2023-05-10T13:39:43;16.10;99.90
41324;DHT22;27073;51.128;4.220;2023-05-10T13:42:09;16.10;99.90
41324;DHT22;27073;51.128;4.220;2023-05-10T13:44:35;16.00;99.90
41324;DHT22;27073;51.128;4.220;2023-05-10T13:47:01;15.90;99.90
41324;DHT22;27073;51.128;4.220;2023-05-10T13:49:27;15.90;99.90
41324;DHT22;27073;51.128;4.220;2023-05-10T13:51:52;16.00;99.90
41324;DHT22;27073;51.128;4.220;2023-05-10T13:54:18;16.00;99.90
41324;DHT22;27073;51.128;4.220;2023-05-10T13:56:45;16.20;99.90
41324;DHT22;27073;51.128;4.220;2023-05-10T13:59:13;16.50;99.90
41324;DHT22;27073;51.128;4.220;2023-05-10T14:01:40;16.70;99.90
41324;DHT22;27073;51.128;4.220;2023-05-10T14:04:06;17.20;99.90
41324;DHT22;27073;51.128;4.220;2023-05-10T14:06:34;17.30;99.20
41324;DHT22;27073;51.128;4.220;2023-05-10T14:09:00;16.70;99.90
41324;DHT22;27073;51.128;4.220;2023-05-10T14:11:25;16.60;99.90
41324;DHT22;27073;51.128;4.220;2023-05-10T14:13:51;16.80;99.90
41324;DHT22;27073;51.128;4.220;2023-05-10T14:16:17;17.10;99.90
41324;DHT22;27073;51.128;4.220;2023-05-10T14:18:42;17.30;99.90
41324;DHT22;27073;51.128;4.220;2023-05-10T14:21:08;17.40;99.90
41324;DHT22;27073;51.128;4.220;2023-05-10T14:23:34;17.30;99.90
41324;DHT22;27073;51.128;4.220;2023-05-10T14:26:00;16.70;99.90
41324;DHT22;27073;51.128;4.220;2023-05-10T14:28:25;15.20;99.90
41324;DHT22;27073;51.128;4.220;2023-05-10T14:30:51;14.70;99.90
41324;DHT22;27073;51.128;4.220;2023-05-10T14:33:17;14.30;99.90
41324;DHT22;27073;51.128;4.220;2023-05-10T14:35:43;14.10;99.90
41324;DHT22;27073;51.128;4.220;2023-05-10T14:38:09;14.00;99.90
41324;DHT22;27073;51.128;4.220;2023-05-10T14:40:36;14.00;99.90
41324;DHT22;27073;51.128;4.220;2023-05-10T14:43:01;13.90;99.90
41324;DHT22;27073;51.128;4.220;2023-05-10T14:45:27;14.10;99.90
41324;DHT22;27073;51.128;4.220;2023-05-10T14:47:53;14.10;99.90
41324;DHT22;27073;51.128;4.220;2023-05-10T14:50:19;14.10;99.90
41324;DHT22;27073;51.128;4.220;2023-05-10T14:52:45;14.10;99.90
41324;DHT22;27073;51.128;4.220;2023-05-10T14:55:10;14.30;99.90
41324;DHT22;27073;51.128;4.220;2023-05-10T14:57:36;14.50;99.90
41324;DHT22;27073;51.128;4.220;2023-05-10T15:00:03;14.50;99.90
41324;DHT22;27073;51.128;4.220;2023-05-10T15:02:30;14.80;99.90
41324;DHT22;27073;51.128;4.220;2023-05-10T15:04:56;15.00;99.90
41324;DHT22;27073;51.128;4.220;2023-05-10T15:07:23;15.20;99.90
41324;DHT22;27073;51.128;4.220;2023-05-10T15:09:50;15.30;99.90
41324;DHT22;27073;51.128;4.220;2023-05-10T15:12:17;15.40;99.90
41324;DHT22;27073;51.128;4.220;2023-05-10T15:14:43;15.60;99.90
41324;DHT22;27073;51.128;4.220;2023-05-10T15:17:09;15.60;99.90
41324;DHT22;27073;51.128;4.220;2023-05-10T15:19:35;15.60;99.90
41324;DHT22;27073;51.128;4.220;2023-05-10T15:22:02;15.70;99.90
41324;DHT22;27073;51.128;4.220;2023-05-10T15:24:28;15.60;99.90
41324;DHT22;27073;51.128;4.220;2023-05-10T15:26:54;15.60;99.90
41324;DHT22;27073;51.128;4.220;2023-05-10T15:29:20;15.70;99.90
41324;DHT22;27073;51.128;4.220;2023-05-10T15:31:50;15.70;99.90
41324;DHT22;27073;51.128;4.220;2023-05-10T15:34:16;15.70;99.90
41324;DHT22;27073;51.128;4.220;2023-05-10T15:36:43;15.50;99.90
41324;DHT22;27073;51.128;4.220;2023-05-10T15:39:10;15.60;99.90
41324;DHT22;27073;51.128;4.220;2023-05-10T15:41:35;15.50;99.90
41324;DHT22;27073;51.128;4.220;2023-05-10T15:44:01;15.50;99.90
41324;DHT22;27073;51.128;4.220;2023-05-10T15:46:28;15.60;99.90
41324;DHT22;27073;51.128;4.220;2023-05-10T15:48:54;15.50;99.90
41324;DHT22;27073;51.128;4.220;2023-05-10T15:51:20;15.40;99.90
41324;DHT22;27073;51.128;4.220;2023-05-10T15:53:46;15.40;99.90
41324;DHT22;27073;51.128;4.220;2023-05-10T15:56:12;15.40;99.90
41324;DHT22;27073;51.128;4.220;2023-05-10T15:58:39;15.40;99.90
41324;DHT22;27073;51.128;4.220;2023-05-10T16:01:05;15.40;99.90
41324;DHT22;27073;51.128;4.220;2023-05-10T16:03:33;15.50;99.90
41324;DHT22;27073;51.128;4.220;2023-05-10T16:05:59;15.60;99.90
41324;DHT22;27073;51.128;4.220;2023-05-10T16:08:25;15.30;99.90
41324;DHT22;27073;51.128;4.220;2023-05-10T16:10:51;15.00;99.90
41324;DHT22;27073;51.128;4.220;2023-05-10T16:13:17;14.70;99.90
41324;DHT22;27073;51.128;4.220;2023-05-10T16:15:43;14.50;99.90
41324;DHT22;27073;51.128;4.220;2023-05-10T16:18:09;14.40;99.90
41324;DHT22;27073;51.128;4.220;2023-05-10T16:20:35;14.40;99.90